Overview Statistics Trail Chart Weather Telemetry Raw packets
 

This is the latest recevied packets stored in our database for station/object DG6DR-12. If no packets are shown the sender has not sent any packets the latest 24 hours.

If you compare the raw packets with similar data from other websites it may differ (especially the path), the reason is that we are not collecting packets from the same APRS-IS servers. Each APRS-IS server performes duplicate filtering, and which packet that is considered to be a duplicate may differ depending on which APRS-IS server you receive your data from.

<< 1 2 >>

1788626636: DG6DR-12>APRSGW,TCPIP*,qAR,DG6DR-12:T#252,1003.2,24.2,48.9,1024.4,0.0,00000000

1788626636: DG6DR-12>APRSGW,TCPIP*,qAR,DG6DR-12:!5120.58N/00722.83E-Klaus OV-O19#DG6DR-12/B=100/A=000600

1788624806: DG6DR-12>APRSGW,TCPIP*,qAR,DG6DR-12::DG6DR-12 :UNIT.hPa,C deg,%,hPa,C deg,Y/N,O/N,O/N,O/N,O/N,O/N,O/N,O/N

1788624806: DG6DR-12>APRSGW,TCPIP*,qAR,DG6DR-12::DG6DR-12 :PARM.Press,Temp.in,Hum,QNH,Temp.out,track,-,-,-,-,-,-,-

1788624806: DG6DR-12>APRSGW,TCPIP*,qAR,DG6DR-12::DG6DR-12 :EQNS.0,1,0,0,1,0,0,1,0,0,1,0,0,1,0

1788624806: DG6DR-12>APRSGW,TCPIP*,qAR,DG6DR-12:T#251,1002.7,24.2,48.8,1024.0,0.0,00000000

1788624806: DG6DR-12>APRSGW,TCPIP*,qAR,DG6DR-12:!5120.58N/00722.83E-Klaus OV-O19#DG6DR-12/B=100/A=000600

1788622976: DG6DR-12>APRSGW,TCPIP*,qAR,DG6DR-12:T#250,1002.5,24.6,53.5,1023.7,0.0,00000000

1788622976: DG6DR-12>APRSGW,TCPIP*,qAR,DG6DR-12:!5120.58N/00722.83E-Klaus OV-O19#DG6DR-12/B=100/A=000600

1788621146: DG6DR-12>APRSGW,TCPIP*,qAR,DG6DR-12:!5120.58N/00722.83E-Klaus OV-O19#DG6DR-12/B=100/A=000600

1788621146: DG6DR-12>APRSGW,TCPIP*,qAR,DG6DR-12:T#249,1002.1,25.1,55.4,1023.3,0.0,00000000

1788619316: DG6DR-12>APRSGW,TCPIP*,qAR,DG6DR-12:T#248,1002.0,25.1,55.3,1023.2,0.0,00000000

1788619316: DG6DR-12>APRSGW,TCPIP*,qAR,DG6DR-12:!5120.58N/00722.83E-Klaus OV-O19#DG6DR-12/B=100/A=000600

1788617486: DG6DR-12>APRSGW,TCPIP*,qAR,DG6DR-12:T#247,1001.7,25.0,55.1,1022.9,0.0,00000000

1788617486: DG6DR-12>APRSGW,TCPIP*,qAR,DG6DR-12:!5120.58N/00722.83E-Klaus OV-O19#DG6DR-12/B=099/A=000600

1788615669: DG6DR-12>APRSGW,TCPIP*,qAR,DG6DR-12:!5120.58N/00722.83E-Klaus OV-O19#DG6DR-12/B=100/A=000600

1788615669: DG6DR-12>APRSGW,TCPIP*,qAR,DG6DR-12:T#246,1001.5,24.9,54.6,1022.7,0.0,00000000

1788613826: DG6DR-12>APRSGW,TCPIP*,qAR,DG6DR-12:!5120.58N/00722.83E-Klaus OV-O19#DG6DR-12/B=100/A=000600

1788613826: DG6DR-12>APRSGW,TCPIP*,qAR,DG6DR-12:T#245,1001.4,24.7,54.0,1022.6,0.0,00000000

1788611996: DG6DR-12>APRSGW,TCPIP*,qAR,DG6DR-12:T#244,1001.4,24.3,54.0,1022.6,0.0,00000000

1788611996: DG6DR-12>APRSGW,TCPIP*,qAR,DG6DR-12:!5120.58N/00722.83E-Klaus OV-O19#DG6DR-12/B=100/A=000600

1788610166: DG6DR-12>APRSGW,TCPIP*,qAR,DG6DR-12:!5120.58N/00722.83E-Klaus OV-O19#DG6DR-12/B=100/A=000600

1788610166: DG6DR-12>APRSGW,TCPIP*,qAR,DG6DR-12:T#243,1001.2,24.6,54.4,1022.5,0.0,00000000

1788608336: DG6DR-12>APRSGW,TCPIP*,qAR,DG6DR-12:!5120.58N/00722.83E-Klaus OV-O19#DG6DR-12/B=100/A=000600

1788608336: DG6DR-12>APRSGW,TCPIP*,qAR,DG6DR-12:T#242,1000.9,24.5,54.9,1022.1,0.0,00000000